Terminal Aerodrome Forecast
Issued by NWS Chicago, IL

Home | Current Version | Previous Version | Text Only | Print | Product List | Glossary On
Versions: 1 2 3 4 5 6 7 8 9 10 11 12 13 14 15 16 17 18 19 20 21 22 23 24
936
FTUS43 KLOT 272323
TAFRFD
TAF
KRFD 272323Z 2800/2824 04011KT P6SM FEW060 FEW250
     FM280100 04007KT P6SM SCT250
     FM281500 04010KT P6SM SCT030=

USA.gov is the U.S. government's official web portal to all federal, state and local government web resources and services.